Time;durP1;ratioP1;P1;durP2;ratioP2;P2;SDS_P1;SDS_P2;PMS_P1;PMS_P2;Temp;Humidity;BMP_temperature;BMP_pressure;BME280_temperature;BME280_humidity;BME280_pressure;Samples;Min_cycle;Max_cycle;Signal;HPM_P1;HPM_P2
2021/11/04 00:01:50;;;;;;;3.20;3.00;;;;;;;;;;5087506;28;20192;-83
2021/11/04 00:04:17;;;;;;;3.15;2.95;;;;;;;;;;5095676;28;20200;-85
2021/11/04 00:06:45;;;;;;;4.85;4.45;;;;;;;;;;5096029;28;20299;-84
2021/11/04 00:09:12;;;;;;;3.50;3.20;;;;;;;;;;5095437;28;20735;-83
2021/11/04 00:11:40;;;;;;;4.50;4.13;;;;;;;;;;5094607;28;20725;-82
2021/11/04 00:14:08;;;;;;;5.05;4.55;;;;;;;;;;5093911;28;20176;-83
2021/11/04 00:16:36;;;;;;;3.70;3.40;;;;;;;;;;5094089;28;20212;-82
2021/11/04 00:19:03;;;;;;;5.47;4.90;;;;;;;;;;5094453;28;20222;-82
2021/11/04 00:21:31;;;;;;;6.30;5.75;;;;;;;;;;5094475;28;20185;-86
2021/11/04 00:23:59;;;;;;;5.75;5.25;;;;;;;;;;5093912;28;20173;-84
2021/11/04 00:26:27;;;;;;;6.68;6.07;;;;;;;;;;5094477;28;20192;-84
2021/11/04 00:28:56;;;;;;;5.82;5.32;;;;;;;;;;5094798;28;20876;-83
2021/11/04 00:31:25;;;;;;;6.35;5.45;;;;;;;;;;5094630;28;20673;-84
2021/11/04 00:33:53;;;;;;;4.78;4.43;;;;;;;;;;5094816;28;20205;-82
2021/11/04 00:36:20;;;;;;;4.20;3.80;;;;;;;;;;5093621;28;20222;-84
2021/11/04 00:38:48;;;;;;;5.70;4.55;;;;;;;;;;5094117;28;20223;-83
2021/11/04 00:41:18;;;;;;;8.45;7.20;;;;;;;;;;5094326;28;20191;-84
2021/11/04 00:43:46;;;;;;;6.95;6.28;;;;;;;;;;5094587;28;20622;-83
2021/11/04 00:46:14;;;;;;;6.53;5.93;;;;;;;;;;5094085;28;20184;-83
2021/11/04 00:48:43;;;;;;;6.80;6.20;;;;;;;;;;5114565;22;20220;-87
2021/11/04 00:51:12;;;;;;;5.00;4.60;;;;;;;;;;5029771;28;20206;-88
2021/11/04 00:53:40;;;;;;;3.95;3.65;;;;;;;;;;5030514;28;20186;-87
2021/11/04 00:56:12;;;;;;;3.30;3.10;;;;;;;;;;5030358;28;20183;-87
2021/11/04 00:58:49;;;;;;;3.97;3.67;;;;;;;;;;5028744;28;20194;-88
2021/11/04 01:01:19;;;;;;;4.55;4.13;;;;;;;;;;5010628;28;20244;-87
2021/11/04 01:03:48;;;;;;;5.18;4.78;;;;;;;;;;5010823;28;20179;-88
2021/11/04 01:06:17;;;;;;;6.25;5.65;;;;;;;;;;5010998;28;20197;-87
2021/11/04 01:08:45;;;;;;;5.32;4.85;;;;;;;;;;5010210;28;20592;-86
2021/11/04 01:11:15;;;;;;;4.15;3.85;;;;;;;;;;5010264;28;20202;-87
2021/11/04 01:13:43;;;;;;;3.67;3.38;;;;;;;;;;5010402;28;20269;-87
2021/11/04 01:16:11;;;;;;;3.30;3.00;;;;;;;;;;5010165;28;20184;-87
2021/11/04 01:18:39;;;;;;;5.25;4.80;;;;;;;;;;5009519;28;20203;-87
2021/11/04 01:21:07;;;;;;;6.28;5.65;;;;;;;;;;5010413;28;20209;-87
2021/11/04 01:23:36;;;;;;;5.68;5.18;;;;;;;;;;5010407;28;20687;-85
2021/11/04 01:26:06;;;;;;;5.88;5.38;;;;;;;;;;5010533;28;20198;-83
2021/11/04 01:28:33;;;;;;;6.88;6.25;;;;;;;;;;5009436;28;20707;-85
2021/11/04 01:31:01;;;;;;;7.45;6.80;;;;;;;;;;5009959;28;20192;-85
2021/11/04 01:33:30;;;;;;;6.43;5.93;;;;;;;;;;5009770;28;20584;-85
2021/11/04 01:35:57;;;;;;;7.20;6.53;;;;;;;;;;5009853;28;20210;-85
2021/11/04 01:38:27;;;;;;;7.25;6.55;;;;;;;;;;5009527;28;20192;-85
2021/11/04 01:40:56;;;;;;;7.55;6.88;;;;;;;;;;5009409;28;20219;-84
2021/11/04 01:43:23;;;;;;;7.97;7.25;;;;;;;;;;5009771;28;20183;-85
2021/11/04 01:45:52;;;;;;;7.93;7.13;;;;;;;;;;5009877;28;20183;-87
2021/11/04 01:48:21;;;;;;;9.13;8.23;;;;;;;;;;5009274;28;20195;-88
2021/11/04 01:50:48;;;;;;;8.63;7.82;;;;;;;;;;5009347;28;20631;-86
2021/11/04 01:53:19;;;;;;;7.90;7.20;;;;;;;;;;5009346;28;20211;-88
2021/11/04 01:55:49;;;;;;;8.32;7.47;;;;;;;;;;5010135;28;20506;-86
2021/11/04 01:58:18;;;;;;;6.15;5.65;;;;;;;;;;5009525;28;20286;-88
2021/11/04 02:00:46;;;;;;;4.72;4.32;;;;;;;;;;5010073;28;20227;-87
2021/11/04 02:03:23;;;;;;;4.28;3.97;;;;;;;;;;5009531;28;20680;-87
2021/11/04 02:05:58;;;;;;;4.15;3.83;;;;;;;;;;5009776;28;20234;-86
2021/11/04 02:08:32;;;;;;;4.45;4.05;;;;;;;;;;5010412;28;20209;-88
2021/11/04 02:11:10;;;;;;;6.40;5.80;;;;;;;;;;5013676;28;20608;-88
2021/11/04 02:13:46;;;;;;;9.07;5.40;;;;;;;;;;5014027;28;20211;-87
2021/11/04 02:16:18;;;;;;;4.78;4.38;;;;;;;;;;5013177;28;20571;-87
2021/11/04 02:18:47;;;;;;;5.85;5.35;;;;;;;;;;5013094;28;20542;-87
2021/11/04 02:21:21;;;;;;;7.68;6.25;;;;;;;;;;5012945;28;20652;-87
2021/11/04 02:23:52;;;;;;;7.65;6.95;;;;;;;;;;5013015;28;20183;-85
2021/11/04 02:26:23;;;;;;;7.18;6.45;;;;;;;;;;5013120;28;20201;-87
2021/11/04 02:28:50;;;;;;;6.53;5.93;;;;;;;;;;5012840;28;20215;-87
2021/11/04 02:31:19;;;;;;;6.90;6.25;;;;;;;;;;5013408;28;20187;-87
2021/11/04 02:33:47;;;;;;;8.35;7.43;;;;;;;;;;5013247;28;20578;-87
2021/11/04 02:36:15;;;;;;;8.27;7.47;;;;;;;;;;5012386;28;20192;-87
2021/11/04 02:38:43;;;;;;;7.45;6.75;;;;;;;;;;5012557;28;20184;-88
2021/11/04 02:41:10;;;;;;;5.63;5.07;;;;;;;;;;5012829;28;20556;-87
2021/11/04 02:43:39;;;;;;;5.75;5.35;;;;;;;;;;5013111;28;20203;-88
2021/11/04 02:46:09;;;;;;;5.47;4.97;;;;;;;;;;5013693;28;20187;-87
2021/11/04 02:48:36;;;;;;;5.25;4.75;;;;;;;;;;5012463;28;20555;-88
2021/11/04 02:51:04;;;;;;;3.67;3.38;;;;;;;;;;5012478;28;20211;-87
2021/11/04 02:53:33;;;;;;;3.25;2.95;;;;;;;;;;5012383;28;20674;-87
2021/11/04 02:56:01;;;;;;;3.83;3.40;;;;;;;;;;5012461;28;20191;-88
2021/11/04 02:58:29;;;;;;;3.72;3.42;;;;;;;;;;5012547;28;20199;-87
2021/11/04 03:01:03;;;;;;;2.90;2.70;;;;;;;;;;5011660;28;20223;-87
2021/11/04 03:03:30;;;;;;;4.63;4.22;;;;;;;;;;5011364;28;20190;-87
2021/11/04 03:05:58;;;;;;;4.28;3.88;;;;;;;;;;5012037;28;20195;-87
2021/11/04 03:08:26;;;;;;;5.20;4.80;;;;;;;;;;5012222;28;20577;-87
2021/11/04 03:10:53;;;;;;;3.58;3.35;;;;;;;;;;5011817;28;20218;-87
2021/11/04 03:13:23;;;;;;;7.18;6.47;;;;;;;;;;5012146;28;20691;-87
2021/11/04 03:15:54;;;;;;;7.18;6.50;;;;;;;;;;5011795;28;20203;-87
2021/11/04 03:18:24;;;;;;;7.15;6.55;;;;;;;;;;5011854;28;20238;-87
2021/11/04 03:20:54;;;;;;;6.20;5.70;;;;;;;;;;5011600;28;20222;-87
2021/11/04 03:23:22;;;;;;;6.43;5.82;;;;;;;;;;5012425;28;20210;-87
2021/11/04 03:25:50;;;;;;;6.10;5.55;;;;;;;;;;5012243;28;20556;-88
2021/11/04 03:28:18;;;;;;;3.92;3.63;;;;;;;;;;5011828;28;20553;-88
2021/11/04 03:30:46;;;;;;;7.25;6.65;;;;;;;;;;5011996;28;20223;-87
2021/11/04 03:33:15;;;;;;;7.80;7.13;;;;;;;;;;5011284;28;20219;-87
2021/11/04 03:35:45;;;;;;;8.45;7.63;;;;;;;;;;5012332;28;20561;-85
2021/11/04 03:38:14;;;;;;;8.65;7.78;;;;;;;;;;5011584;28;20230;-85
2021/11/04 03:40:44;;;;;;;8.52;7.60;;;;;;;;;;5011803;28;20223;-85
2021/11/04 03:43:13;;;;;;;9.27;8.25;;;;;;;;;;5011561;28;20194;-85
2021/11/04 03:45:41;;;;;;;7.05;6.35;;;;;;;;;;5011883;28;20223;-85
2021/11/04 03:48:09;;;;;;;7.38;6.68;;;;;;;;;;5010748;28;20214;-84
2021/11/04 03:50:40;;;;;;;7.22;6.55;;;;;;;;;;5011492;28;20243;-85
2021/11/04 03:53:10;;;;;;;6.18;5.63;;;;;;;;;;5012205;28;20575;-86
2021/11/04 03:55:38;;;;;;;7.05;6.35;;;;;;;;;;5011997;28;20195;-85
2021/11/04 03:58:06;;;;;;;6.97;6.38;;;;;;;;;;5011739;28;20202;-86
2021/11/04 04:00:34;;;;;;;6.82;6.30;;;;;;;;;;5012039;28;20311;-85
2021/11/04 04:03:02;;;;;;;8.05;6.95;;;;;;;;;;5010968;28;20195;-85
2021/11/04 04:05:33;;;;;;;9.93;8.95;;;;;;;;;;5011291;28;20559;-87
2021/11/04 04:08:02;;;;;;;9.27;7.97;;;;;;;;;;5011156;28;20191;-88
2021/11/04 04:10:33;;;;;;;10.02;9.13;;;;;;;;;;5011293;28;20219;-87
2021/11/04 04:13:04;;;;;;;8.75;7.90;;;;;;;;;;5011184;28;20187;-88
2021/11/04 04:15:31;;;;;;;7.57;6.88;;;;;;;;;;5011121;28;20183;-87
2021/11/04 04:17:59;;;;;;;7.60;6.90;;;;;;;;;;5011453;28;20207;-88
2021/11/04 04:20:27;;;;;;;8.27;7.28;;;;;;;;;;5011380;28;20227;-87
2021/11/04 04:22:55;;;;;;;7.78;6.97;;;;;;;;;;5011649;28;20202;-87
2021/11/04 04:25:23;;;;;;;7.95;7.20;;;;;;;;;;5011172;28;20183;-89
2021/11/04 04:27:53;;;;;;;12.43;9.10;;;;;;;;;;5009011;28;20195;-88
2021/11/04 04:30:22;;;;;;;7.38;6.68;;;;;;;;;;5011306;28;20227;-87
2021/11/04 04:32:51;;;;;;;9.25;8.45;;;;;;;;;;5010926;28;20190;-87
2021/11/04 04:35:21;;;;;;;9.40;8.27;;;;;;;;;;5011303;28;20203;-87
2021/11/04 04:37:48;;;;;;;8.82;8.02;;;;;;;;;;5010939;28;20196;-87
2021/11/04 04:40:16;;;;;;;9.02;8.13;;;;;;;;;;5011084;28;20229;-85
2021/11/04 04:42:43;;;;;;;9.70;8.45;;;;;;;;;;5011681;28;20203;-87
2021/11/04 04:45:15;;;;;;;9.02;8.10;;;;;;;;;;5010548;28;20637;-87
2021/11/04 04:47:43;;;;;;;9.75;8.75;;;;;;;;;;5010401;28;20637;-87
2021/11/04 04:50:11;;;;;;;9.23;7.97;;;;;;;;;;5010445;28;20246;-87
2021/11/04 04:52:41;;;;;;;8.18;7.38;;;;;;;;;;5011202;28;20270;-86
2021/11/04 04:55:10;;;;;;;8.43;7.00;;;;;;;;;;5010794;28;20207;-88
2021/11/04 04:57:38;;;;;;;7.47;6.68;;;;;;;;;;5010862;28;20192;-89
2021/11/04 05:00:11;;;;;;;7.05;6.25;;;;;;;;;;5010657;28;20223;-88
2021/11/04 05:02:41;;;;;;;6.65;5.95;;;;;;;;;;5010607;28;20630;-87
2021/11/04 05:05:10;;;;;;;7.32;6.13;;;;;;;;;;5010174;28;20785;-87
2021/11/04 05:07:38;;;;;;;8.13;7.32;;;;;;;;;;5010714;28;20189;-88
2021/11/04 05:10:08;;;;;;;8.18;6.30;;;;;;;;;;5010545;28;20226;-87
2021/11/04 05:12:36;;;;;;;7.05;6.35;;;;;;;;;;5011255;28;20190;-87
2021/11/04 05:15:06;;;;;;;5.93;5.30;;;;;;;;;;5010773;28;20215;-87
2021/11/04 05:17:34;;;;;;;5.97;5.38;;;;;;;;;;5010428;28;20186;-88
2021/11/04 05:20:04;;;;;;;6.30;5.70;;;;;;;;;;5011064;28;20227;-88
2021/11/04 05:22:33;;;;;;;6.70;5.82;;;;;;;;;;5010054;28;20784;-87
2021/11/04 05:25:01;;;;;;;7.80;6.43;;;;;;;;;;5010603;28;20585;-88
2021/11/04 05:27:30;;;;;;;6.38;5.78;;;;;;;;;;5009541;28;20206;-88
2021/11/04 05:29:58;;;;;;;6.65;5.68;;;;;;;;;;5010167;28;20853;-87
2021/11/04 05:32:27;;;;;;;7.05;5.75;;;;;;;;;;5009757;28;20187;-90
2021/11/04 05:34:55;;;;;;;5.82;4.97;;;;;;;;;;5010921;28;20211;-88
2021/11/04 05:37:24;;;;;;;6.68;5.85;;;;;;;;;;5018017;28;20202;-85
2021/11/04 05:39:52;;;;;;;5.05;4.53;;;;;;;;;;5010337;28;20620;-87
2021/11/04 05:42:20;;;;;;;6.57;5.97;;;;;;;;;;5011345;28;20192;-88
2021/11/04 05:44:47;;;;;;;7.28;5.38;;;;;;;;;;5014079;28;20183;-89
2021/11/04 05:47:16;;;;;;;7.18;5.90;;;;;;;;;;5013770;28;20282;-89
2021/11/04 05:49:45;;;;;;;6.18;5.38;;;;;;;;;;5013688;28;20242;-88
2021/11/04 05:52:13;;;;;;;7.20;5.80;;;;;;;;;;5014203;28;20203;-89
2021/11/04 05:54:42;;;;;;;6.78;5.85;;;;;;;;;;5014220;28;20223;-88
2021/11/04 05:57:10;;;;;;;6.40;5.72;;;;;;;;;;5014576;28;20560;-88
2021/11/04 05:59:38;;;;;;;6.60;5.50;;;;;;;;;;5014231;28;20215;-86
2021/11/04 06:02:15;;;;;;;7.53;6.03;;;;;;;;;;5014692;28;20657;-87
2021/11/04 06:04:47;;;;;;;5.75;5.07;;;;;;;;;;5014320;28;20193;-85
2021/11/04 06:07:16;;;;;;;7.53;5.57;;;;;;;;;;5014299;28;20222;-87
2021/11/04 06:09:46;;;;;;;6.38;5.22;;;;;;;;;;5013531;28;20223;-86
2021/11/04 06:12:16;;;;;;;6.78;5.90;;;;;;;;;;5014496;28;20195;-89
2021/11/04 06:14:50;;;;;;;6.57;5.18;;;;;;;;;;5014728;28;20664;-89
2021/11/04 06:17:23;;;;;;;6.00;5.28;;;;;;;;;;5014153;28;20202;-89
2021/11/04 06:19:58;;;;;;;6.75;5.30;;;;;;;;;;5017255;28;20221;-90
2021/11/04 06:22:26;;;;;;;7.05;5.57;;;;;;;;;;5014334;28;20179;-87
2021/11/04 06:24:55;;;;;;;6.43;5.80;;;;;;;;;;5013653;28;20201;-86
2021/11/04 06:27:23;;;;;;;7.32;5.53;;;;;;;;;;5013208;28;20711;-87
2021/11/04 06:30:03;;;;;;;7.03;5.80;;;;;;;;;;5014071;28;20219;-87
2021/11/04 06:32:45;;;;;;;7.72;6.47;;;;;;;;;;5014057;28;20191;-89
2021/11/04 06:35:36;;;;;;;8.02;6.03;;;;;;;;;;5015082;28;20684;-90
2021/11/04 06:38:06;;;;;;;6.78;6.07;;;;;;;;;;5017391;28;20192;-90
2021/11/04 06:40:36;;;;;;;7.95;5.88;;;;;;;;;;5023615;28;20221;-90
2021/11/04 06:43:06;;;;;;;7.38;5.30;;;;;;;;;;5033952;28;20197;-90
2021/11/04 06:45:35;;;;;;;7.47;5.88;;;;;;;;;;5033496;28;20198;-89
2021/11/04 06:48:22;;;;;;;7.63;5.80;;;;;;;;;;5016975;28;20685;-89
2021/11/04 06:50:52;;;;;;;6.55;4.95;;;;;;;;;;5013040;28;20246;-89
2021/11/04 06:53:31;;;;;;;6.38;5.70;;;;;;;;;;5013622;28;20179;-90
2021/11/04 06:56:05;;;;;;;7.50;6.70;;;;;;;;;;4993319;28;20215;-90
2021/11/04 06:58:34;;;;;;;8.73;6.40;;;;;;;;;;4993184;28;20204;-89
2021/11/04 07:01:12;;;;;;;8.05;6.30;;;;;;;;;;4993507;28;20557;-90
2021/11/04 07:04:17;;;;;;;7.72;6.35;;;;;;;;;;4995772;28;20584;-90
2021/11/04 07:07:50;;;;;;;6.20;5.50;;;;;;;;;;5012746;28;20214;-90
2021/11/04 07:10:38;;;;;;;7.55;5.60;;;;;;;;;;5012882;28;20230;-90
2021/11/04 07:13:40;;;;;;;6.70;4.90;;;;;;;;;;5013164;28;20195;-90
2021/11/04 07:16:09;;;;;;;6.03;5.00;;;;;;;;;;5013061;28;20206;-90
2021/11/04 07:18:39;;;;;;;7.70;5.88;;;;;;;;;;5012818;28;20194;-91
2021/11/04 07:21:45;;;;;;;5.22;4.63;;;;;;;;;;5013143;28;20192;-90
2021/11/04 07:24:19;;;;;;;7.10;4.78;;;;;;;;;;4993164;28;20192;-90
2021/11/04 07:26:54;;;;;;;6.20;4.63;;;;;;;;;;4992795;28;20194;-90
2021/11/04 07:29:38;;;;;;;6.32;4.93;;;;;;;;;;4992440;28;20230;-90
2021/11/04 07:32:16;;;;;;;4.90;4.25;;;;;;;;;;4993201;28;20642;-89
2021/11/04 07:34:46;;;;;;;4.22;3.83;;;;;;;;;;5015740;28;20202;-90
2021/11/04 07:37:20;;;;;;;3.47;3.17;;;;;;;;;;5012359;28;20211;-90
2021/11/04 07:39:49;;;;;;;4.13;3.72;;;;;;;;;;5011890;28;20229;-89
2021/11/04 07:42:37;;;;;;;4.22;3.83;;;;;;;;;;5012279;28;20209;-89
2021/11/04 07:45:25;;;;;;;3.65;3.00;;;;;;;;;;5032098;28;20210;-90
2021/11/04 07:48:13;;;;;;;2.90;2.70;;;;;;;;;;5031767;28;20186;-90
2021/11/04 07:50:54;;;;;;;3.55;3.25;;;;;;;;;;5028755;28;20238;-90
2021/11/04 07:54:08;;;;;;;4.65;3.78;;;;;;;;;;5012278;28;20214;-91
2021/11/04 07:56:42;;;;;;;4.28;2.63;;;;;;;;;;4992861;28;20210;-90
2021/11/04 07:59:19;;;;;;;2.47;2.10;;;;;;;;;;4992490;28;20226;-89
2021/11/04 08:01:59;;;;;;;1.85;1.73;;;;;;;;;;5014057;28;20206;-91
2021/11/04 08:04:39;;;;;;;1.83;1.50;;;;;;;;;;5013112;28;20623;-90
2021/11/04 08:07:13;;;;;;;1.73;1.63;;;;;;;;;;5013056;28;20649;-90
2021/11/04 08:10:21;;;;;;;1.67;1.45;;;;;;;;;;5031172;28;20218;-90
2021/11/04 08:13:14;;;;;;;2.55;1.48;;;;;;;;;;4993856;28;20239;-90
2021/11/04 08:16:08;;;;;;;1.67;1.58;;;;;;;;;;5012719;28;20219;-90
2021/11/04 08:18:38;;;;;;;1.48;1.38;;;;;;;;;;5011896;28;20664;-90
2021/11/04 08:21:08;;;;;;;1.80;1.70;;;;;;;;;;5011802;28;20217;-90
2021/11/04 08:23:41;;;;;;;1.63;1.52;;;;;;;;;;5012051;28;20187;-90
2021/11/04 08:27:17;;;;;;;2.03;1.90;;;;;;;;;;5012063;28;20187;-92
2021/11/04 08:29:46;;;;;;;2.28;2.17;;;;;;;;;;5011770;28;20225;-90
2021/11/04 08:32:22;;;;;;;2.13;1.90;;;;;;;;;;5011548;28;20187;-91
2021/11/04 08:35:15;;;;;;;2.30;2.10;;;;;;;;;;5011753;28;20179;-91
2021/11/04 08:41:31;;;;;;;2.35;2.15;;;;;;;;;;5011289;28;20238;-88
2021/11/04 08:47:40;;;;;;;4.45;3.10;;;;;;;;;;5011070;28;20236;-89
2021/11/04 08:50:17;;;;;;;3.10;2.83;;;;;;;;;;5011087;28;20235;-89
2021/11/04 08:52:56;;;;;;;4.53;3.10;;;;;;;;;;5010898;28;20199;-87
2021/11/04 08:55:33;;;;;;;3.30;3.00;;;;;;;;;;5011217;28;20194;-89
2021/11/04 08:58:38;;;;;;;3.20;2.90;;;;;;;;;;5010964;28;20214;-89
2021/11/04 09:01:11;;;;;;;3.20;3.00;;;;;;;;;;5019299;28;20194;-89
2021/11/04 09:03:45;;;;;;;4.05;3.65;;;;;;;;;;5013553;28;20285;-89
2021/11/04 09:06:14;;;;;;;4.45;3.65;;;;;;;;;;5013421;28;20190;-89
2021/11/04 09:09:22;;;;;;;3.00;2.75;;;;;;;;;;5012389;28;20206;-90
2021/11/04 09:11:51;;;;;;;2.97;2.78;;;;;;;;;;5012832;28;20179;-89
2021/11/04 09:14:48;;;;;;;4.35;3.95;;;;;;;;;;5013242;28;20642;-89
2021/11/04 09:17:45;;;;;;;3.22;2.65;;;;;;;;;;5013746;28;20583;-89
2021/11/04 09:20:21;;;;;;;3.70;2.50;;;;;;;;;;5017274;28;20225;-88
2021/11/04 09:22:51;;;;;;;3.30;3.00;;;;;;;;;;5016358;28;20201;-88
2021/11/04 09:25:22;;;;;;;3.28;2.97;;;;;;;;;;5016663;28;20539;-88
2021/11/04 09:27:56;;;;;;;3.08;2.80;;;;;;;;;;5016811;28;20189;-88
2021/11/04 09:30:26;;;;;;;3.70;2.97;;;;;;;;;;5020097;28;20258;-89
2021/11/04 09:33:04;;;;;;;2.40;2.20;;;;;;;;;;5016694;28;20190;-87
2021/11/04 09:35:53;;;;;;;3.28;2.97;;;;;;;;;;5013923;28;20205;-86
2021/11/04 09:38:42;;;;;;;2.58;2.38;;;;;;;;;;5003203;28;20253;-89
2021/11/04 09:41:19;;;;;;;2.97;2.53;;;;;;;;;;5028470;28;20337;-88
2021/11/04 09:44:20;;;;;;;3.72;3.03;;;;;;;;;;5015838;28;20552;-88
2021/11/04 09:46:48;;;;;;;3.70;3.40;;;;;;;;;;5018175;28;20593;-88
2021/11/04 09:49:22;;;;;;;3.30;3.00;;;;;;;;;;5030244;28;20234;-88
2021/11/04 09:52:05;;;;;;;4.10;3.47;;;;;;;;;;5016385;28;20282;-88
2021/11/04 09:54:57;;;;;;;5.00;4.18;;;;;;;;;;5016579;28;20203;-89
2021/11/04 09:57:28;;;;;;;3.88;3.58;;;;;;;;;;5016495;28;20203;-90
2021/11/04 10:00:15;;;;;;;5.32;3.60;;;;;;;;;;5016787;28;20219;-90
2021/11/04 10:03:02;;;;;;;4.50;4.10;;;;;;;;;;4996275;28;20761;-89
2021/11/04 10:05:34;;;;;;;4.55;4.05;;;;;;;;;;4996984;28;20579;-90
2021/11/04 10:08:33;;;;;;;4.57;4.18;;;;;;;;;;4996428;28;20204;-88
2021/11/04 10:11:12;;;;;;;5.13;4.47;;;;;;;;;;4996315;28;20211;-91
2021/11/04 10:13:41;;;;;;;4.65;4.07;;;;;;;;;;4976544;28;20211;-89
2021/11/04 10:16:30;;;;;;;3.95;3.53;;;;;;;;;;4976825;28;20227;-88
2021/11/04 10:19:18;;;;;;;5.30;4.40;;;;;;;;;;4976837;28;20217;-89
2021/11/04 10:21:51;;;;;;;4.18;3.83;;;;;;;;;;4990924;28;20661;-90
2021/11/04 10:25:28;;;;;;;5.07;4.55;;;;;;;;;;4996415;28;20642;-89
2021/11/04 10:28:39;;;;;;;4.95;3.90;;;;;;;;;;4917003;29;20203;-91
2021/11/04 10:31:15;;;;;;;5.10;4.60;;;;;;;;;;4917214;29;20690;-91
2021/11/04 10:33:55;;;;;;;4.65;4.25;;;;;;;;;;4917245;29;20571;-91
2021/11/04 10:36:45;;;;;;;5.00;4.15;;;;;;;;;;4960873;28;20204;-91
2021/11/04 10:39:39;;;;;;;4.82;4.32;;;;;;;;;;4996160;28;20226;-90
2021/11/04 10:42:14;;;;;;;5.25;4.75;;;;;;;;;;4995998;28;20223;-91
2021/11/04 10:44:54;;;;;;;5.85;4.53;;;;;;;;;;4996083;28;20258;-91
2021/11/04 10:47:38;;;;;;;3.78;3.45;;;;;;;;;;5003257;28;20202;-90
2021/11/04 10:50:06;;;;;;;5.03;3.75;;;;;;;;;;5020955;28;20624;-88
2021/11/04 10:52:35;;;;;;;6.93;4.55;;;;;;;;;;4995673;28;20195;-90
2021/11/04 10:55:37;;;;;;;4.22;3.75;;;;;;;;;;4995743;28;20561;-90
2021/11/04 10:58:31;;;;;;;4.03;3.45;;;;;;;;;;4995395;28;20689;-90
2021/11/04 11:01:03;;;;;;;4.45;3.72;;;;;;;;;;5007268;28;20265;-91
2021/11/04 11:03:31;;;;;;;5.70;5.15;;;;;;;;;;5014911;28;20188;-90
2021/11/04 11:06:07;;;;;;;6.63;4.85;;;;;;;;;;5014243;28;20209;-90
2021/11/04 11:08:35;;;;;;;6.07;4.63;;;;;;;;;;5014460;28;20206;-90
2021/11/04 11:11:02;;;;;;;7.18;5.68;;;;;;;;;;5014330;28;20210;-91
2021/11/04 11:13:29;;;;;;;8.00;5.20;;;;;;;;;;5014193;28;20195;-90
2021/11/04 11:15:59;;;;;;;5.72;4.90;;;;;;;;;;5014459;28;20291;-90
2021/11/04 11:18:29;;;;;;;7.75;5.63;;;;;;;;;;5014079;28;20226;-90
2021/11/04 11:20:57;;;;;;;6.68;5.10;;;;;;;;;;5014566;28;20227;-91
2021/11/04 11:23:29;;;;;;;4.82;4.43;;;;;;;;;;5014336;28;20207;-91
2021/11/04 11:25:59;;;;;;;6.38;5.50;;;;;;;;;;5014594;28;20231;-91
2021/11/04 11:28:30;;;;;;;6.40;5.47;;;;;;;;;;5014416;28;20191;-89
2021/11/04 11:31:20;;;;;;;6.80;5.45;;;;;;;;;;5014649;28;20234;-89
2021/11/04 11:34:15;;;;;;;6.40;5.72;;;;;;;;;;5014076;28;20214;-88
2021/11/04 11:37:12;;;;;;;4.72;4.32;;;;;;;;;;5014044;28;20207;-89
2021/11/04 11:39:41;;;;;;;7.32;5.10;;;;;;;;;;5013748;28;20297;-88
2021/11/04 11:42:14;;;;;;;6.63;5.13;;;;;;;;;;5013886;28;20595;-89
2021/11/04 11:44:57;;;;;;;6.05;5.45;;;;;;;;;;5013880;28;20206;-88
2021/11/04 11:47:38;;;;;;;6.53;5.05;;;;;;;;;;5015919;28;20219;-88
2021/11/04 11:50:30;;;;;;;5.68;4.80;;;;;;;;;;5015118;28;20321;-88
2021/11/04 11:53:01;;;;;;;5.15;4.43;;;;;;;;;;5015202;28;20203;-88
2021/11/04 11:55:41;;;;;;;5.18;4.68;;;;;;;;;;5014838;28;20700;-88
2021/11/04 11:58:31;;;;;;;4.72;4.32;;;;;;;;;;5013270;28;20657;-88
2021/11/04 12:01:08;;;;;;;5.32;4.82;;;;;;;;;;5013669;28;20238;-88
2021/11/04 12:03:47;;;;;;;4.50;3.90;;;;;;;;;;5013376;28;20202;-88
2021/11/04 12:06:53;;;;;;;7.47;4.82;;;;;;;;;;5013249;28;20195;-88
2021/11/04 12:09:47;;;;;;;6.38;4.80;;;;;;;;;;5013341;28;20225;-88
2021/11/04 12:12:45;;;;;;;7.07;4.82;;;;;;;;;;5013323;28;20290;-88
2021/11/04 12:15:12;;;;;;;4.78;3.78;;;;;;;;;;5013597;28;20539;-88
2021/11/04 12:17:40;;;;;;;4.82;4.22;;;;;;;;;;5013131;28;20207;-89
2021/11/04 12:20:09;;;;;;;7.68;5.93;;;;;;;;;;5012971;28;20229;-88
2021/11/04 12:22:41;;;;;;;6.70;5.13;;;;;;;;;;5013342;28;20187;-88
2021/11/04 12:25:12;;;;;;;5.82;5.20;;;;;;;;;;5013125;28;20203;-90
2021/11/04 12:27:43;;;;;;;5.55;4.70;;;;;;;;;;5012948;28;20675;-89
2021/11/04 12:30:23;;;;;;;6.05;4.40;;;;;;;;;;5013070;28;20606;-88
2021/11/04 12:33:01;;;;;;;4.88;3.75;;;;;;;;;;5013150;28;20210;-87
2021/11/04 12:35:43;;;;;;;3.67;3.38;;;;;;;;;;5012858;28;20213;-87
2021/11/04 12:38:11;;;;;;;5.30;4.05;;;;;;;;;;5013265;28;20223;-88
2021/11/04 12:40:40;;;;;;;5.30;4.68;;;;;;;;;;5012790;28;20219;-89
2021/11/04 12:43:10;;;;;;;3.65;3.35;;;;;;;;;;5012387;28;20684;-89
2021/11/04 12:45:43;;;;;;;3.45;3.15;;;;;;;;;;5012897;28;20205;-88
2021/11/04 12:48:11;;;;;;;4.90;3.78;;;;;;;;;;5012637;28;20293;-89
2021/11/04 12:50:40;;;;;;;4.35;3.67;;;;;;;;;;5012333;28;20238;-88
2021/11/04 12:53:09;;;;;;;3.85;3.55;;;;;;;;;;5012721;28;20281;-86
2021/11/04 12:55:36;;;;;;;4.10;3.30;;;;;;;;;;5012699;28;20199;-86
2021/11/04 12:58:07;;;;;;;5.13;4.45;;;;;;;;;;5012792;28;20572;-87
2021/11/04 13:00:36;;;;;;;3.30;3.00;;;;;;;;;;5012560;28;20607;-86
2021/11/04 13:03:04;;;;;;;3.55;3.25;;;;;;;;;;5012513;28;20583;-86
2021/11/04 13:05:37;;;;;;;4.28;3.88;;;;;;;;;;5012555;28;20197;-86
2021/11/04 13:08:10;;;;;;;4.38;3.85;;;;;;;;;;5012573;28;20210;-86
2021/11/04 13:10:39;;;;;;;4.97;4.15;;;;;;;;;;5012342;28;20223;-87
2021/11/04 13:13:08;;;;;;;3.78;3.38;;;;;;;;;;5013035;28;20211;-87
2021/11/04 13:15:36;;;;;;;5.10;4.18;;;;;;;;;;5012398;28;20233;-87
2021/11/04 13:18:05;;;;;;;4.00;3.33;;;;;;;;;;5012751;28;20238;-86
2021/11/04 13:20:35;;;;;;;4.03;3.58;;;;;;;;;;5012551;28;20230;-86
2021/11/04 13:23:07;;;;;;;3.50;2.90;;;;;;;;;;5012585;28;20206;-86
2021/11/04 13:25:38;;;;;;;3.88;3.40;;;;;;;;;;5012190;28;20203;-87
2021/11/04 13:28:09;;;;;;;3.92;3.53;;;;;;;;;;5012486;28;20210;-87
2021/11/04 13:30:40;;;;;;;4.13;3.72;;;;;;;;;;5012439;28;20227;-87
2021/11/04 13:33:08;;;;;;;4.13;3.10;;;;;;;;;;5012459;28;20207;-86
2021/11/04 13:35:38;;;;;;;3.22;2.92;;;;;;;;;;5012430;28;20195;-87
2021/11/04 13:38:11;;;;;;;3.08;2.80;;;;;;;;;;5012191;28;20207;-87
2021/11/04 13:41:02;;;;;;;3.95;3.30;;;;;;;;;;5012256;28;20229;-86
2021/11/04 13:43:40;;;;;;;3.38;3.08;;;;;;;;;;5012280;28;20205;-86
2021/11/04 13:46:10;;;;;;;3.40;3.10;;;;;;;;;;5012275;28;20203;-87
2021/11/04 13:48:44;;;;;;;3.35;3.05;;;;;;;;;;5011069;28;20214;-86
2021/11/04 13:51:34;;;;;;;3.42;3.08;;;;;;;;;;5012259;28;20231;-86
2021/11/04 13:54:12;;;;;;;3.65;3.28;;;;;;;;;;5012515;28;20267;-86
2021/11/04 13:56:40;;;;;;;3.30;3.00;;;;;;;;;;5012223;28;20199;-87
2021/11/04 13:59:09;;;;;;;3.53;2.70;;;;;;;;;;5012191;28;20227;-86
2021/11/04 14:01:37;;;;;;;2.88;2.67;;;;;;;;;;5012035;28;20209;-87
2021/11/04 14:04:11;;;;;;;3.40;3.10;;;;;;;;;;5014085;28;20289;-87
2021/11/04 14:06:43;;;;;;;3.00;2.60;;;;;;;;;;5015987;28;20203;-86
2021/11/04 14:09:11;;;;;;;5.65;3.42;;;;;;;;;;5015743;28;20310;-86
2021/11/04 14:11:40;;;;;;;2.97;2.78;;;;;;;;;;5015520;28;20203;-87
2021/11/04 14:14:11;;;;;;;3.30;3.00;;;;;;;;;;5015488;28;20205;-86
2021/11/04 14:16:43;;;;;;;3.40;2.90;;;;;;;;;;5015723;28;20202;-86
2021/11/04 14:19:13;;;;;;;3.85;3.45;;;;;;;;;;5015314;28;20222;-87
2021/11/04 14:21:41;;;;;;;3.33;2.95;;;;;;;;;;5015449;28;20187;-86
2021/11/04 14:24:10;;;;;;;4.35;3.22;;;;;;;;;;5015426;28;20213;-87
2021/11/04 14:26:39;;;;;;;3.45;3.15;;;;;;;;;;5015555;28;20203;-86
2021/11/04 14:29:10;;;;;;;4.10;3.70;;;;;;;;;;5015233;28;20310;-85
2021/11/04 14:31:39;;;;;;;5.78;4.90;;;;;;;;;;5015405;28;20256;-85
2021/11/04 14:34:07;;;;;;;5.68;5.10;;;;;;;;;;5015377;28;20249;-86
2021/11/04 14:36:34;;;;;;;5.03;4.13;;;;;;;;;;5015200;28;20231;-86
2021/11/04 14:39:02;;;;;;;6.03;4.68;;;;;;;;;;5015111;28;20229;-87
2021/11/04 14:41:29;;;;;;;4.35;3.95;;;;;;;;;;5015354;28;20214;-86
2021/11/04 14:43:57;;;;;;;5.75;4.95;;;;;;;;;;5015140;28;20199;-86
2021/11/04 14:46:30;;;;;;;5.60;5.07;;;;;;;;;;5015401;28;20187;-86
2021/11/04 14:48:57;;;;;;;6.38;5.53;;;;;;;;;;5014905;28;20709;-87
2021/11/04 14:51:25;;;;;;;6.90;6.03;;;;;;;;;;5014809;28;20242;-87
2021/11/04 14:53:52;;;;;;;5.60;4.95;;;;;;;;;;5014867;28;20202;-86
2021/11/04 14:56:20;;;;;;;9.45;6.47;;;;;;;;;;5014777;28;20191;-87
2021/11/04 14:58:48;;;;;;;7.90;6.28;;;;;;;;;;5014593;28;20213;-86
2021/11/04 15:01:15;;;;;;;6.35;5.57;;;;;;;;;;5014548;28;20218;-86
2021/11/04 15:03:44;;;;;;;7.07;5.35;;;;;;;;;;5014641;28;20195;-87
2021/11/04 15:06:13;;;;;;;6.75;5.50;;;;;;;;;;5014700;28;20200;-86
2021/11/04 15:08:41;;;;;;;7.20;5.78;;;;;;;;;;5014649;28;20254;-86
2021/11/04 15:11:08;;;;;;;6.35;5.72;;;;;;;;;;5014692;28;20206;-87
2021/11/04 15:13:36;;;;;;;5.68;5.10;;;;;;;;;;5014434;28;20199;-87
2021/11/04 15:16:03;;;;;;;6.25;5.65;;;;;;;;;;5014192;28;20210;-87
2021/11/04 15:18:32;;;;;;;7.45;5.65;;;;;;;;;;5014229;28;20199;-86
2021/11/04 15:21:00;;;;;;;7.13;5.25;;;;;;;;;;5014808;28;20223;-86
2021/11/04 15:23:28;;;;;;;6.80;5.10;;;;;;;;;;5015696;28;20195;-86
2021/11/04 15:25:57;;;;;;;6.53;5.50;;;;;;;;;;5016341;28;20280;-86
2021/11/04 15:28:24;;;;;;;5.68;5.00;;;;;;;;;;5015882;28;20214;-87
2021/11/04 15:30:53;;;;;;;4.95;4.45;;;;;;;;;;5015099;28;20223;-86